Time;durP1;ratioP1;P1;durP2;ratioP2;P2;SDS_P1;SDS_P2;PMS_P1;PMS_P2;Temp;Humidity;BMP_temperature;BMP_pressure;BME280_temperature;BME280_humidity;BME280_pressure;Samples;Min_cycle;Max_cycle;Signal;HPM_P1;HPM_P2
2022/08/15 00:01:17;;;;;;;0.00;0.00;;;;;;;16.22;100.00;97377.84;5044087;28;20044;-81
2022/08/15 00:03:48;;;;;;;0.00;0.00;;;;;;;16.21;100.00;97376.19;5074929;28;20063;-81
2022/08/15 00:06:21;;;;;;;0.00;0.00;;;;;;;16.19;100.00;97376.34;5077485;28;20032;-80
2022/08/15 00:08:51;;;;;;;0.00;0.00;;;;;;;16.23;100.00;97371.59;5079977;28;20082;-80
2022/08/15 00:11:21;;;;;;;0.00;0.00;;;;;;;16.27;100.00;97379.06;5076973;28;20127;-81
2022/08/15 00:13:52;;;;;;;0.00;0.00;;;;;;;16.36;100.00;97382.66;5079908;28;20041;-82
2022/08/15 00:16:20;;;;;;;0.00;0.00;;;;;;;16.42;100.00;97372.28;5076866;28;20481;-80
2022/08/15 00:18:48;;;;;;;0.00;0.00;;;;;;;16.42;100.00;97376.75;5075070;28;20503;-81
2022/08/15 00:21:19;;;;;;;0.00;0.00;;;;;;;16.42;100.00;97376.75;5077111;28;20186;-79
2022/08/15 00:23:48;;;;;;;0.00;0.00;;;;;;;16.38;100.00;97373.56;5060650;28;20443;-81
2022/08/15 00:26:16;;;;;;;0.00;0.00;;;;;;;16.39;100.00;97374.41;5080893;28;20028;-81
2022/08/15 00:28:43;;;;;;;0.00;0.00;;;;;;;16.42;100.00;97380.25;5081258;28;20040;-80
2022/08/15 00:31:13;;;;;;;0.00;0.00;;;;;;;16.42;100.00;97376.75;5074284;28;20048;-81
2022/08/15 00:33:41;;;;;;;0.00;0.00;;;;;;;16.35;100.00;97371.22;5079111;28;20066;-81
2022/08/15 00:36:08;;;;;;;0.00;0.00;;;;;;;16.22;100.00;97376.03;5059330;28;20043;-81
2022/08/15 00:38:36;;;;;;;0.00;0.00;;;;;;;16.13;100.00;97370.78;5067725;28;20059;-81
2022/08/15 00:43:57;;;;;;;0.00;0.00;;;;;;;15.97;100.00;97365.28;5067876;28;20052;-81
2022/08/15 00:46:26;;;;;;;0.00;0.00;;;;;;;15.90;100.00;97362.34;5079948;28;20081;-82
2022/08/15 00:48:54;;;;;;;0.00;0.00;;;;;;;15.89;100.00;97360.69;5078653;28;20042;-81
2022/08/15 00:51:27;;;;;;;0.00;0.00;;;;;;;15.97;100.00;97362.63;5059340;28;20044;-82
2022/08/15 00:53:58;;;;;;;0.00;0.00;;;;;;;16.01;100.00;97366.66;5079168;28;20405;-81
2022/08/15 00:56:31;;;;;;;0.00;0.00;;;;;;;16.06;100.00;97354.66;5080870;28;20044;-82
2022/08/15 00:58:59;;;;;;;0.00;0.00;;;;;;;16.08;100.00;97346.53;5085191;28;20094;-82
2022/08/15 01:01:29;;;;;;;0.00;0.00;;;;;;;16.07;100.00;97350.16;5080086;28;20129;-81
2022/08/15 01:03:57;;;;;;;0.00;0.00;;;;;;;16.04;100.00;97356.56;5068201;28;20056;-81
2022/08/15 01:06:25;;;;;;;0.00;0.00;;;;;;;15.89;100.00;97349.28;5061292;28;20040;-80
2022/08/15 01:08:53;;;;;;;0.00;0.00;;;;;;;15.88;100.00;97352.88;5080074;28;20485;-81
2022/08/15 01:11:26;;;;;;;0.00;0.00;;;;;;;15.93;100.00;97350.63;5070487;28;20397;-82
2022/08/15 01:13:59;;;;;;;;;;;;;;;15.97;100.00;97360.78;5084608;28;20040;-81
2022/08/15 01:16:29;;;;;;;0.00;0.00;;;;;;;15.91;100.00;97357.91;5080716;28;19931;-82
2022/08/15 01:18:57;;;;;;;0.00;0.00;;;;;;;15.83;100.00;97353.34;5067839;28;20052;-81
2022/08/15 01:21:38;;;;;;;0.00;0.00;;;;;;;15.77;100.00;97350.41;5067973;28;20040;-81
2022/08/15 01:24:17;;;;;;;0.00;0.00;;;;;;;15.76;100.00;97351.41;5066311;28;20031;-81
2022/08/15 01:26:47;;;;;;;0.00;0.00;;;;;;;15.79;100.00;97340.50;5051594;28;20459;-81
2022/08/15 01:29:17;;;;;;;0.00;0.00;;;;;;;15.80;100.00;97342.19;5064032;28;20090;-80
2022/08/15 01:31:45;;;;;;;0.00;0.00;;;;;;;15.80;100.00;97347.47;5061396;28;20036;-81
2022/08/15 01:34:13;;;;;;;0.00;0.00;;;;;;;15.83;100.00;97347.19;5082752;28;20040;-80
2022/08/15 01:36:40;;;;;;;0.00;0.00;;;;;;;15.89;100.00;97336.00;5065596;28;20389;-80
2022/08/15 01:39:15;;;;;;;0.00;0.00;;;;;;;15.92;100.00;97335.69;5081942;28;20469;-82
2022/08/15 01:41:52;;;;;;;0.00;0.00;;;;;;;15.89;100.00;97333.34;5059510;28;20089;-80
2022/08/15 01:44:25;;;;;;;0.00;0.00;;;;;;;15.86;100.00;97338.94;5076625;28;20397;-80
2022/08/15 01:47:00;;;;;;;0.00;0.00;;;;;;;15.77;100.00;97331.84;5076945;28;20128;-82
2022/08/15 01:49:34;;;;;;;0.00;0.00;;;;;;;15.69;100.00;97321.16;5075712;28;20040;-80
2022/08/15 01:52:04;;;;;;;0.00;0.00;;;;;;;15.72;100.00;97321.72;5072764;28;20024;-82
2022/08/15 01:54:38;;;;;;;0.00;0.00;;;;;;;15.78;100.00;97328.25;5073151;28;20119;-81
2022/08/15 01:57:07;;;;;;;0.00;0.00;;;;;;;15.87;100.00;97319.38;5081065;28;20052;-81
2022/08/15 01:59:35;;;;;;;0.00;0.00;;;;;;;15.87;100.00;97314.09;5073229;28;20123;-80
2022/08/15 02:02:05;;;;;;;0.00;0.00;;;;;;;15.86;100.00;97321.19;5085040;28;20190;-81
2022/08/15 02:04:37;;;;;;;0.00;0.00;;;;;;;15.87;100.00;97322.03;5080937;28;20064;-81
2022/08/15 02:07:10;;;;;;;0.00;0.00;;;;;;;15.83;100.00;97326.81;5065477;28;20509;-81
2022/08/15 02:09:40;;;;;;;0.00;0.00;;;;;;;15.87;100.00;97330.00;5072407;28;20032;-81
2022/08/15 02:12:11;;;;;;;0.00;0.00;;;;;;;15.89;100.00;97325.41;5062259;28;20067;-80
2022/08/15 02:14:42;;;;;;;0.00;0.00;;;;;;;15.90;100.00;97316.44;5071748;28;20094;-81
2022/08/15 02:17:13;;;;;;;0.00;0.00;;;;;;;15.87;100.00;97314.94;5083281;28;20032;-80
2022/08/15 02:19:44;;;;;;;0.00;0.00;;;;;;;15.89;100.00;97310.28;5062105;28;20048;-82
2022/08/15 02:22:12;;;;;;;0.00;0.00;;;;;;;15.91;100.00;97307.50;5083290;28;20044;-81
2022/08/15 02:24:40;;;;;;;0.00;0.00;;;;;;;15.86;100.00;97301.81;5080869;28;20109;-81
2022/08/15 02:27:10;;;;;;;0.00;0.00;;;;;;;15.76;100.00;97303.66;5067726;28;20062;-81
2022/08/15 02:29:38;;;;;;;0.00;0.00;;;;;;;15.74;100.00;97300.31;5079932;28;20032;-81
2022/08/15 02:32:11;;;;;;;0.00;0.00;;;;;;;15.76;100.00;97301.88;5069622;28;20040;-81
2022/08/15 02:34:38;;;;;;;0.00;0.00;;;;;;;15.79;100.00;97282.16;5081167;28;20043;-81
2022/08/15 02:37:08;;;;;;;0.00;0.00;;;;;;;15.74;100.00;97287.91;5065721;28;20036;-81
2022/08/15 02:39:36;;;;;;;0.00;0.00;;;;;;;15.82;100.00;97281.88;5070031;28;20039;-81
2022/08/15 02:42:04;;;;;;;0.00;0.00;;;;;;;15.91;100.00;97275.66;5066781;28;20032;-81
2022/08/15 02:44:33;;;;;;;0.00;0.00;;;;;;;16.04;100.00;97271.66;5081344;28;20497;-81
2022/08/15 02:47:05;;;;;;;0.00;0.00;;;;;;;16.08;100.00;97262.44;5071464;28;20036;-81
2022/08/15 02:49:33;;;;;;;0.00;0.00;;;;;;;16.17;100.00;97274.81;5056712;28;20044;-81
2022/08/15 02:52:01;;;;;;;0.00;0.00;;;;;;;16.22;100.00;97280.50;5073345;28;20045;-81
2022/08/15 02:54:29;;;;;;;0.00;0.00;;;;;;;16.19;100.00;97286.09;5068933;28;20048;-82
2022/08/15 02:56:57;;;;;;;0.00;0.00;;;;;;;16.12;100.00;97284.22;5056439;28;20068;-82
2022/08/15 02:59:25;;;;;;;0.00;0.00;;;;;;;16.12;100.00;97297.47;5079110;28;20059;-82
2022/08/15 03:01:57;;;;;;;0.00;0.00;;;;;;;16.11;100.00;97293.13;5084749;28;20043;-80
2022/08/15 03:04:26;;;;;;;0.00;0.00;;;;;;;16.12;100.00;97294.84;5056126;28;20512;-82
2022/08/15 03:06:56;;;;;;;0.00;0.00;;;;;;;16.06;100.00;97301.56;5083523;28;20508;-82
2022/08/15 03:09:24;;;;;;;0.00;0.00;;;;;;;16.03;100.00;97303.63;5073136;28;20048;-81
2022/08/15 03:11:58;;;;;;;0.00;0.00;;;;;;;16.05;100.00;97297.22;5060195;28;20059;-81
2022/08/15 03:14:36;;;;;;;0.00;0.00;;;;;;;16.06;100.00;97292.75;5072618;28;20520;-81
2022/08/15 03:17:09;;;;;;;;;;;;;;;16.00;100.00;97286.22;5073175;28;20040;-81
2022/08/15 03:19:43;;;;;;;0.00;0.00;;;;;;;16.00;100.00;97290.69;5063567;28;20003;-81
2022/08/15 03:22:13;;;;;;;0.00;0.00;;;;;;;16.01;100.00;97287.06;5076280;28;20048;-81
2022/08/15 03:24:44;;;;;;;0.00;0.00;;;;;;;15.98;100.00;97287.34;5064545;28;20519;-82
2022/08/15 03:27:11;;;;;;;0.00;0.00;;;;;;;15.87;100.00;97275.13;5080376;28;20050;-82
2022/08/15 03:29:40;;;;;;;0.00;0.00;;;;;;;15.84;100.00;97275.44;5076138;28;20044;-82
2022/08/15 03:32:13;;;;;;;0.00;0.00;;;;;;;15.79;100.00;97269.72;5088221;28;20067;-83
2022/08/15 03:34:41;;;;;;;0.00;0.00;;;;;;;15.79;100.00;97266.25;5084205;28;20101;-81
2022/08/15 03:37:09;;;;;;;0.00;0.00;;;;;;;15.76;100.00;97275.34;5072513;28;20086;-82
2022/08/15 03:39:36;;;;;;;0.00;0.00;;;;;;;15.81;100.00;97277.53;5092946;28;20109;-82
2022/08/15 03:42:09;;;;;;;0.00;0.00;;;;;;;15.87;100.00;97283.09;5074298;28;20135;-82
2022/08/15 03:44:39;;;;;;;0.00;0.00;;;;;;;15.85;100.00;97281.56;5067641;28;20149;-82
2022/08/15 03:47:06;;;;;;;0.00;0.00;;;;;;;15.72;100.00;97281.09;5073424;28;20050;-82
2022/08/15 03:49:37;;;;;;;0.00;0.00;;;;;;;15.73;100.00;97291.56;5065857;28;20044;-81
2022/08/15 03:52:07;;;;;;;0.00;0.00;;;;;;;15.71;100.00;97306.75;5075411;28;20094;-81
2022/08/15 03:54:36;;;;;;;0.00;0.00;;;;;;;15.48;100.00;97323.19;5068065;28;20055;-81
2022/08/15 03:57:03;;;;;;;0.00;0.00;;;;;;;15.31;100.00;97326.63;5063271;28;20036;-81
2022/08/15 03:59:31;;;;;;;0.00;0.00;;;;;;;15.38;100.00;97322.41;5059199;28;20040;-81
2022/08/15 04:02:00;;;;;;;0.00;0.00;;;;;;;15.48;100.00;97339.94;5071216;28;20377;-82
2022/08/15 04:04:28;;;;;;;0.00;0.00;;;;;;;15.59;100.00;97333.59;5071205;28;20044;-81
2022/08/15 04:06:57;;;;;;;0.00;0.00;;;;;;;15.67;100.00;97331.09;5077386;28;20055;-82
2022/08/15 04:09:25;;;;;;;0.00;0.00;;;;;;;15.73;100.00;97338.44;5065054;28;20072;-81
2022/08/15 04:11:53;;;;;;;0.00;0.00;;;;;;;15.80;100.00;97340.38;5073324;28;20041;-81
2022/08/15 04:14:28;;;;;;;0.00;0.00;;;;;;;15.94;100.00;97331.06;5055169;28;20128;-82
2022/08/15 04:16:59;;;;;;;0.00;0.00;;;;;;;16.01;100.00;97340.94;5076254;28;20059;-81
2022/08/15 04:19:26;;;;;;;0.00;0.00;;;;;;;16.11;100.00;97332.94;5071628;28;20032;-80
2022/08/15 04:21:54;;;;;;;0.00;0.00;;;;;;;16.18;100.00;97336.66;5088488;28;20051;-81
2022/08/15 04:24:24;;;;;;;0.00;0.00;;;;;;;16.26;100.00;97344.75;5072665;28;20409;-82
2022/08/15 04:26:52;;;;;;;0.00;0.00;;;;;;;16.31;100.00;97337.16;5064231;28;20032;-82
2022/08/15 04:29:20;;;;;;;0.00;0.00;;;;;;;16.35;100.00;97333.22;5079359;28;20054;-82
2022/08/15 04:31:47;;;;;;;0.00;0.00;;;;;;;16.50;100.00;97334.34;5068212;28;20093;-82
2022/08/15 04:34:15;;;;;;;0.00;0.00;;;;;;;16.60;100.00;97332.47;5069206;28;20063;-82
2022/08/15 04:36:46;;;;;;;0.00;0.00;;;;;;;16.64;100.00;97329.34;5079506;28;20040;-81
2022/08/15 04:39:15;;;;;;;0.00;0.00;;;;;;;16.72;100.00;97337.38;5088559;28;20036;-81
2022/08/15 04:42:02;;;;;;;0.00;0.00;;;;;;;16.86;100.00;97334.16;5071365;28;20566;-81
2022/08/15 04:44:30;;;;;;;0.00;0.00;;;;;;;16.95;100.00;97332.44;5073629;28;20036;-82
2022/08/15 04:46:58;;;;;;;0.00;0.00;;;;;;;17.01;100.00;97324.72;5073331;28;20040;-81
2022/08/15 04:49:26;;;;;;;0.00;0.00;;;;;;;17.12;100.00;97324.44;5072860;28;20040;-82
2022/08/15 04:51:54;;;;;;;0.00;0.00;;;;;;;17.21;100.00;97320.00;5073744;28;20050;-81
2022/08/15 04:54:24;;;;;;;0.00;0.00;;;;;;;17.28;100.00;97323.69;5056094;28;20041;-81
2022/08/15 04:57:16;;;;;;;0.00;0.00;;;;;;;17.40;100.00;97311.84;5054855;28;20051;-81
2022/08/15 04:59:44;;;;;;;0.00;0.00;;;;;;;17.49;100.00;97314.38;5070927;28;20044;-82
2022/08/15 05:05:27;;;;;;;0.00;0.00;;;;;;;17.64;100.00;97320.75;5051622;23;20297;-82
2022/08/15 05:07:55;;;;;;;0.00;0.00;;;;;;;17.75;100.00;97324.94;4912759;29;20112;-81
2022/08/15 05:10:23;;;;;;;0.00;0.00;;;;;;;17.83;100.00;97322.34;4926242;29;20052;-79
2022/08/15 05:12:52;;;;;;;0.00;0.00;;;;;;;17.93;100.00;97323.06;4932570;29;20036;-81
2022/08/15 05:15:22;;;;;;;0.00;0.00;;;;;;;17.92;100.00;97318.75;4915457;29;20048;-80
2022/08/15 05:17:53;;;;;;;0.00;0.00;;;;;;;17.95;100.00;97318.41;4919591;29;20100;-82
2022/08/15 05:20:21;;;;;;;0.00;0.00;;;;;;;18.06;100.00;97309.31;4929867;29;20051;-80
2022/08/15 05:22:54;;;;;;;0.00;0.00;;;;;;;18.18;100.00;97314.16;4927008;29;20055;-80
2022/08/15 05:25:22;;;;;;;0.00;0.00;;;;;;;18.25;100.00;97314.34;4929846;29;20059;-80
2022/08/15 05:27:51;;;;;;;0.00;0.00;;;;;;;18.28;100.00;97309.50;4936666;29;20059;-82
2022/08/15 05:30:22;;;;;;;0.00;0.00;;;;;;;18.43;100.00;97307.88;4936597;29;20044;-81
2022/08/15 05:33:00;;;;;;;0.00;0.00;;;;;;;18.48;100.00;97304.72;4917356;29;20048;-82
2022/08/15 05:35:29;;;;;;;0.00;0.00;;;;;;;18.54;100.00;97302.22;4919971;29;20044;-82
2022/08/15 05:38:00;;;;;;;0.00;0.00;;;;;;;18.53;100.00;97308.56;4932937;29;20046;-82
2022/08/15 05:40:34;;;;;;;0.00;0.00;;;;;;;18.51;100.00;97305.25;4928107;29;20044;-82
2022/08/15 05:43:11;;;;;;;0.00;0.00;;;;;;;18.57;100.00;97307.22;4931713;29;20048;-82
2022/08/15 05:45:51;;;;;;;0.00;0.00;;;;;;;18.68;100.00;97300.78;4916232;29;20095;-81
2022/08/15 05:48:24;;;;;;;0.00;0.00;;;;;;;18.71;100.00;97300.44;4911342;29;20036;-81
2022/08/15 05:51:03;;;;;;;0.00;0.00;;;;;;;18.71;100.00;97295.09;4931369;29;20063;-81
2022/08/15 05:53:45;;;;;;;0.00;0.00;;;;;;;18.78;100.00;97294.28;4914913;29;20044;-83
2022/08/15 05:56:18;;;;;;;0.00;0.00;;;;;;;18.86;100.00;97293.47;4935037;29;20047;-80
2022/08/15 05:58:55;;;;;;;0.00;0.00;;;;;;;18.97;100.00;97285.94;4918279;29;20058;-81
2022/08/15 06:01:30;;;;;;;0.00;0.00;;;;;;;19.03;100.00;97287.09;4929971;29;20042;-82
2022/08/15 06:04:06;;;;;;;0.00;0.00;;;;;;;19.01;100.00;97291.78;4917762;29;20514;-82
2022/08/15 06:06:38;;;;;;;0.00;0.00;;;;;;;19.04;100.00;97289.59;4928919;29;20048;-82
2022/08/15 06:09:22;;;;;;;0.00;0.00;;;;;;;19.18;100.00;97291.56;4927593;29;20466;-82
2022/08/15 06:11:53;;;;;;;0.00;0.00;;;;;;;19.26;100.00;97301.38;4934059;29;20036;-80
2022/08/15 06:14:28;;;;;;;0.00;0.00;;;;;;;19.30;100.00;97298.22;4915924;29;20122;-82
2022/08/15 06:17:03;;;;;;;0.00;0.00;;;;;;;19.40;100.00;97296.19;4915824;29;20038;-81
2022/08/15 06:19:34;;;;;;;0.00;0.00;;;;;;;19.41;100.00;97302.34;4929813;29;20068;-81
2022/08/15 06:22:14;;;;;;;0.00;0.00;;;;;;;19.45;100.00;97301.06;4928564;29;20054;-81
2022/08/15 06:24:57;;;;;;;0.00;0.00;;;;;;;19.44;100.00;97304.69;4930435;29;20048;-82
2022/08/15 06:27:32;;;;;;;0.00;0.00;;;;;;;19.41;100.00;97305.00;4936323;29;20047;-83
2022/08/15 06:30:07;;;;;;;0.00;0.00;;;;;;;19.41;100.00;97311.22;4935441;29;20520;-83
2022/08/15 06:32:48;;;;;;;0.00;0.00;;;;;;;19.51;100.00;97301.19;4914608;29;20094;-81
2022/08/15 06:35:23;;;;;;;0.00;0.00;;;;;;;19.48;100.00;97306.88;4922730;29;20505;-82
2022/08/15 06:38:02;;;;;;;0.00;0.00;;;;;;;19.54;100.00;97306.19;4921184;29;20050;-82
2022/08/15 06:40:48;;;;;;;0.00;0.00;;;;;;;19.57;100.00;97305.81;4935966;29;20095;-81
2022/08/15 06:43:16;;;;;;;0.00;0.00;;;;;;;19.59;100.00;97309.16;4937495;29;20055;-82
2022/08/15 06:46:00;;;;;;;0.00;0.00;;;;;;;19.65;100.00;97307.66;4935696;29;20465;-80
2022/08/15 06:48:32;;;;;;;0.00;0.00;;;;;;;19.70;100.00;97315.97;4937007;29;20051;-82
2022/08/15 06:51:02;;;;;;;0.00;0.00;;;;;;;19.78;100.00;97313.25;4936155;29;20096;-81
2022/08/15 06:53:34;;;;;;;0.00;0.00;;;;;;;19.92;100.00;97308.03;4929242;29;20462;-81
2022/08/15 06:56:09;;;;;;;0.00;0.00;;;;;;;20.07;100.00;97302.78;4921110;29;20062;-82
2022/08/15 06:58:46;;;;;;;0.00;0.00;;;;;;;20.22;100.00;97311.75;4917566;29;20084;-81
2022/08/15 07:01:27;;;;;;;0.00;0.00;;;;;;;20.37;100.00;97307.34;4929633;29;20052;-83
2022/08/15 07:04:07;;;;;;;0.00;0.00;;;;;;;20.60;100.00;97313.53;4918119;29;20131;-82
2022/08/15 07:06:41;;;;;;;0.00;0.00;;;;;;;20.82;100.00;97310.00;4930992;29;20048;-82
2022/08/15 07:09:24;;;;;;;0.00;0.00;;;;;;;20.90;100.00;97312.63;4927739;29;20725;-82
2022/08/15 07:12:00;;;;;;;0.00;0.00;;;;;;;21.26;100.00;97315.50;4911791;29;20059;-83
2022/08/15 07:14:35;;;;;;;0.00;0.00;;;;;;;21.40;100.00;97315.50;4927653;29;20047;-82
2022/08/15 07:17:12;;;;;;;0.00;0.00;;;;;;;21.42;100.00;97304.63;4921490;29;20060;-82
2022/08/15 07:19:41;;;;;;;0.00;0.00;;;;;;;21.37;100.00;97304.34;4934891;29;20047;-82
2022/08/15 07:22:16;;;;;;;0.00;0.00;;;;;;;21.42;100.00;97302.78;4903661;29;20052;-83
2022/08/15 07:24:51;;;;;;;0.00;0.00;;;;;;;21.45;100.00;97302.41;4918346;29;20123;-83
2022/08/15 07:27:28;;;;;;;0.00;0.00;;;;;;;21.43;100.00;97295.59;4931942;29;20069;-82
2022/08/15 07:30:02;;;;;;;0.00;0.00;;;;;;;21.48;100.00;97298.53;4917083;29;20048;-83
2022/08/15 07:32:45;;;;;;;0.00;0.00;;;;;;;21.52;100.00;97298.00;4916320;29;20096;-84
2022/08/15 07:35:23;;;;;;;0.00;0.00;;;;;;;21.64;100.00;97301.06;4910294;29;20067;-84
2022/08/15 07:37:58;;;;;;;0.00;0.00;;;;;;;21.84;100.00;97291.47;4912299;29;20087;-84
2022/08/15 07:40:30;;;;;;;0.00;0.00;;;;;;;22.09;100.00;97290.13;4915109;29;20040;-83
2022/08/15 07:43:01;;;;;;;0.00;0.00;;;;;;;22.08;99.50;97289.28;4928131;29;20144;-84
2022/08/15 07:45:34;;;;;;;0.00;0.00;;;;;;;22.13;98.63;97286.06;4926123;29;20485;-83
2022/08/15 07:48:28;;;;;;;0.00;0.00;;;;;;;22.23;98.34;97289.25;4911795;29;20044;-83
2022/08/15 07:51:09;;;;;;;0.00;0.00;;;;;;;22.29;96.42;97291.19;4925216;29;20048;-83
2022/08/15 07:53:50;;;;;;;0.00;0.00;;;;;;;22.27;96.30;97290.53;4926210;29;21921;-79
2022/08/15 07:56:18;;;;;;;0.00;0.00;;;;;;;22.35;95.64;97291.28;4907753;29;20079;-81
2022/08/15 07:58:46;;;;;;;0.00;0.00;;;;;;;22.47;95.98;97289.78;4920369;29;20060;-81
2022/08/15 08:01:21;;;;;;;0.00;0.00;;;;;;;22.60;95.17;97289.06;4907525;29;20156;-79
2022/08/15 08:03:55;;;;;;;0.00;0.00;;;;;;;22.81;94.45;97283.69;4922623;29;20494;-80
2022/08/15 08:06:29;;;;;;;0.00;0.00;;;;;;;22.99;92.87;97282.25;4922049;29;20050;-81
2022/08/15 08:09:06;;;;;;;0.00;0.00;;;;;;;22.96;91.50;97287.13;4926335;29;20048;-80
2022/08/15 08:11:44;;;;;;;0.00;0.00;;;;;;;22.96;90.86;97285.28;4924653;29;20136;-79
2022/08/15 08:14:22;;;;;;;0.00;0.00;;;;;;;22.99;90.99;97281.41;4919469;29;20135;-79
2022/08/15 08:16:54;;;;;;;0.00;0.00;;;;;;;23.16;91.14;97280.94;4920733;29;20048;-80
2022/08/15 08:19:33;;;;;;;0.00;0.00;;;;;;;23.23;89.37;97281.00;4908504;29;20096;-79
2022/08/15 08:22:11;;;;;;;0.00;0.00;;;;;;;23.36;88.49;97275.72;4913383;29;20049;-81
2022/08/15 08:24:54;;;;;;;0.00;0.00;;;;;;;23.52;87.60;97270.88;4921681;29;20051;-79
2022/08/15 08:27:36;;;;;;;0.00;0.00;;;;;;;23.67;86.69;97270.75;4917240;29;20070;-79
2022/08/15 08:30:09;;;;;;;0.00;0.00;;;;;;;23.91;87.11;97270.28;4923924;29;20063;-79
2022/08/15 08:32:49;;;;;;;0.00;0.00;;;;;;;24.05;86.40;97265.78;4908282;29;20146;-81
2022/08/15 08:35:29;;;;;;;0.00;0.00;;;;;;;24.11;85.15;97267.69;4905358;29;20051;-80
2022/08/15 08:38:07;;;;;;;0.00;0.00;;;;;;;24.25;84.62;97270.19;4904841;29;20078;-78
2022/08/15 08:43:39;;;;;;;0.00;0.00;;;;;;;24.40;80.83;97270.06;4907755;29;20043;-81
2022/08/15 08:46:20;;;;;;;0.00;0.00;;;;;;;24.47;79.77;97271.72;4925008;29;20059;-79
2022/08/15 08:48:56;;;;;;;0.00;0.00;;;;;;;24.56;79.42;97272.38;4909594;29;20051;-80
2022/08/15 08:51:34;;;;;;;0.00;0.00;;;;;;;24.76;78.01;97271.38;4909420;29;20048;-80
2022/08/15 08:54:08;;;;;;;0.00;0.00;;;;;;;24.79;75.79;97275.50;4909362;29;20048;-79
2022/08/15 08:56:40;;;;;;;0.00;0.00;;;;;;;24.86;74.66;97276.34;4908593;29;20460;-81
2022/08/15 08:59:18;;;;;;;0.00;0.00;;;;;;;24.95;75.68;97280.53;4908240;29;20396;-80
2022/08/15 09:01:48;;;;;;;0.00;0.00;;;;;;;24.94;73.92;97268.94;4911933;29;20052;-78
2022/08/15 09:04:19;;;;;;;0.00;0.00;;;;;;;24.94;73.74;97270.78;4908258;29;20064;-82
2022/08/15 09:06:50;;;;;;;0.00;0.00;;;;;;;25.00;73.28;97264.59;4908741;29;20099;-80
2022/08/15 09:09:30;;;;;;;0.00;0.00;;;;;;;25.02;72.68;97270.56;4906335;29;20051;-79
2022/08/15 09:12:03;;;;;;;0.00;0.00;;;;;;;25.09;73.50;97266.88;4898618;29;20042;-78
2022/08/15 09:14:34;;;;;;;0.00;0.00;;;;;;;25.04;72.11;97265.81;4907332;29;20046;-79
2022/08/15 09:17:10;;;;;;;0.00;0.00;;;;;;;25.13;73.17;97262.72;4910670;29;20068;-79
2022/08/15 09:19:47;;;;;;;0.00;0.00;;;;;;;25.38;73.10;97266.44;4911219;29;20142;-82
2022/08/15 09:22:15;;;;;;;0.00;0.00;;;;;;;25.51;72.69;97261.00;4905924;29;20131;-79
2022/08/15 09:24:44;;;;;;;0.00;0.00;;;;;;;25.61;71.94;97264.13;4906007;29;20131;-79
2022/08/15 09:27:21;;;;;;;0.00;0.00;;;;;;;25.75;71.94;97262.22;4902401;29;20371;-81
2022/08/15 09:29:55;;;;;;;0.00;0.00;;;;;;;25.77;71.47;97260.97;4902746;29;20050;-83
2022/08/15 09:32:37;;;;;;;0.00;0.00;;;;;;;25.80;71.46;97254.34;4905683;29;20075;-82
2022/08/15 09:35:43;;;;;;;0.00;0.00;;;;;;;25.80;70.50;97262.44;4903475;29;20048;-80
2022/08/15 09:38:28;;;;;;;0.00;0.00;;;;;;;25.59;69.19;97252.75;4905231;29;20048;-82
2022/08/15 09:41:20;;;;;;;0.00;0.00;;;;;;;25.47;69.99;97254.38;4910823;29;20056;-78
2022/08/15 09:44:10;;;;;;;0.00;0.00;;;;;;;25.53;70.44;97241.97;4907503;29;20079;-81
2022/08/15 09:47:10;;;;;;;0.00;0.00;;;;;;;25.62;70.48;97248.81;4909689;29;20513;-82
2022/08/15 09:50:00;;;;;;;0.00;0.00;;;;;;;25.79;69.86;97248.13;4872442;29;20561;-82
2022/08/15 09:52:40;;;;;;;0.00;0.00;;;;;;;25.90;69.27;97241.22;4870727;29;20060;-81
2022/08/15 09:55:21;;;;;;;0.00;0.00;;;;;;;25.92;68.25;97245.38;4867259;29;20038;-81
2022/08/15 09:57:52;;;;;;;0.00;0.00;;;;;;;25.84;68.49;97234.81;4872229;29;20056;-81
2022/08/15 10:00:32;;;;;;;0.00;0.00;;;;;;;25.98;67.81;97236.44;4868684;29;20049;-81
2022/08/15 10:03:08;;;;;;;0.00;0.00;;;;;;;26.06;67.54;97238.88;4871083;29;20173;-83
2022/08/15 10:05:45;;;;;;;0.00;0.00;;;;;;;26.11;66.56;97238.25;4870811;29;20252;-79
2022/08/15 10:08:14;;;;;;;0.00;0.00;;;;;;;26.09;66.46;97232.25;4869675;29;20530;-81
2022/08/15 10:10:52;;;;;;;0.00;0.00;;;;;;;26.08;66.49;97235.97;4870629;29;20041;-82
2022/08/15 10:13:45;;;;;;;0.00;0.00;;;;;;;26.06;67.87;97228.09;4873186;29;20460;-80
2022/08/15 10:16:47;;;;;;;0.00;0.00;;;;;;;26.16;67.25;97228.50;4873571;29;20526;-80
2022/08/15 10:19:34;;;;;;;0.00;0.00;;;;;;;26.26;67.63;97228.88;4866275;29;20076;-81
2022/08/15 10:22:24;;;;;;;0.00;0.00;;;;;;;26.27;67.03;97222.41;4871256;29;20061;-83
2022/08/15 10:25:15;;;;;;;0.00;0.00;;;;;;;26.34;67.41;97220.50;4874001;29;20045;-81
2022/08/15 10:28:05;;;;;;;0.00;0.00;;;;;;;26.42;66.94;97222.09;4908462;29;20052;-82
2022/08/15 10:30:37;;;;;;;0.00;0.00;;;;;;;26.37;65.89;97217.38;4913252;29;20520;-81
2022/08/15 10:33:26;;;;;;;0.00;0.00;;;;;;;26.35;66.71;97222.16;4913533;29;20040;-81
2022/08/15 10:35:55;;;;;;;0.00;0.00;;;;;;;26.26;65.54;97217.25;4909991;29;20044;-80
2022/08/15 10:38:29;;;;;;;0.00;0.00;;;;;;;26.29;65.87;97216.81;4911316;29;20036;-80
2022/08/15 10:41:09;;;;;;;0.00;0.00;;;;;;;26.20;64.81;97224.31;4910386;29;20470;-79
2022/08/15 10:44:02;;;;;;;0.00;0.00;;;;;;;26.13;64.68;97234.31;4906305;29;20057;-79
2022/08/15 10:46:50;;;;;;;0.00;0.00;;;;;;;26.20;64.98;97229.72;4906638;29;21038;-78
2022/08/15 10:49:35;;;;;;;0.00;0.00;;;;;;;26.20;65.39;97221.63;4911896;29;20556;-79
2022/08/15 10:52:21;;;;;;;0.00;0.00;;;;;;;26.35;66.93;97234.84;4913170;29;20047;-79
2022/08/15 10:55:12;;;;;;;0.00;0.00;;;;;;;26.59;66.03;97224.09;4913656;29;20497;-82
2022/08/15 10:57:48;;;;;;;0.00;0.00;;;;;;;26.78;65.58;97224.19;4905744;29;20052;-81
2022/08/15 11:00:29;;;;;;;0.00;0.00;;;;;;;26.81;65.53;97215.63;4915925;29;20124;-81
2022/08/15 11:03:03;;;;;;;0.00;0.00;;;;;;;26.69;64.90;97219.00;4915168;29;20762;-78
2022/08/15 11:05:31;;;;;;;0.00;0.00;;;;;;;26.64;64.44;97226.94;4911909;29;20056;-79
2022/08/15 11:07:59;;;;;;;0.00;0.00;;;;;;;26.68;64.72;97216.56;4911175;29;20450;-78
2022/08/15 11:10:29;;;;;;;0.00;0.00;;;;;;;26.71;64.91;97220.69;4912697;29;20096;-82
2022/08/15 11:13:01;;;;;;;0.00;0.00;;;;;;;26.71;63.89;97216.13;4912699;29;20714;-80
2022/08/15 11:15:32;;;;;;;0.00;0.00;;;;;;;26.69;64.31;97216.31;4913559;29;20438;-79
2022/08/15 11:18:04;;;;;;;0.00;0.00;;;;;;;26.72;64.45;97217.81;4913498;29;20052;-78
2022/08/15 11:20:40;;;;;;;0.00;0.00;;;;;;;26.85;64.57;97214.19;4911412;29;20124;-79
2022/08/15 11:23:09;;;;;;;0.00;0.00;;;;;;;26.94;64.50;97218.25;4910934;29;20517;-78
2022/08/15 11:25:43;;;;;;;0.00;0.00;;;;;;;26.94;64.01;97212.84;4909411;29;20386;-79
2022/08/15 11:28:21;;;;;;;0.00;0.00;;;;;;;27.04;64.43;97210.47;4910417;29;20044;-80
2022/08/15 11:30:59;;;;;;;0.00;0.00;;;;;;;27.14;63.62;97205.38;4909588;29;20067;-80
2022/08/15 11:33:35;;;;;;;0.00;0.00;;;;;;;27.04;63.80;97205.88;4914612;29;20044;-79
2022/08/15 11:36:06;;;;;;;0.00;0.00;;;;;;;26.94;64.13;97210.97;4912208;29;20143;-79
2022/08/15 11:38:36;;;;;;;0.00;0.00;;;;;;;26.89;62.82;97210.78;4912764;29;20406;-78
2022/08/15 11:41:04;;;;;;;0.00;0.00;;;;;;;26.86;64.01;97205.03;4911673;29;20044;-79
2022/08/15 11:43:34;;;;;;;0.00;0.00;;;;;;;26.92;63.83;97209.53;4904220;29;20052;-82
2022/08/15 11:46:02;;;;;;;0.00;0.00;;;;;;;26.96;62.67;97214.28;4900792;29;20044;-79
2022/08/15 11:48:34;;;;;;;0.00;0.00;;;;;;;27.01;62.83;97205.50;4906219;29;20052;-83
2022/08/15 11:51:06;;;;;;;0.00;0.00;;;;;;;27.05;62.74;97201.31;4902973;29;20051;-80
2022/08/15 11:53:39;;;;;;;0.00;0.00;;;;;;;27.18;63.45;97204.72;4911368;29;20452;-80
2022/08/15 11:56:07;;;;;;;0.00;0.00;;;;;;;27.27;62.75;97206.09;4903360;29;20710;-81
2022/08/15 11:58:37;;;;;;;0.00;0.00;;;;;;;27.28;62.16;97196.94;4906512;29;20063;-83
2022/08/15 12:01:20;;;;;;;0.00;0.00;;;;;;;27.35;62.60;97202.31;4911556;29;20051;-81
2022/08/15 12:04:03;;;;;;;0.00;0.00;;;;;;;27.29;62.98;97205.88;4911131;29;20051;-81
2022/08/15 12:06:33;;;;;;;0.00;0.00;;;;;;;27.27;61.95;97195.31;4928389;29;20059;-82
2022/08/15 12:09:14;;;;;;;0.00;0.00;;;;;;;27.32;62.44;97194.63;4928038;29;20048;-80